sensor_id;sensor_type;location;lat;lon;timestamp;P1;durP1;ratioP1;P2;durP2;ratioP2
23561;SDS011;11959;49.418;8.728;2023-01-09T00:01:44;6.68;;;5.30;;
23561;SDS011;11959;49.418;8.728;2023-01-09T00:04:12;8.18;;;4.97;;
23561;SDS011;11959;49.418;8.728;2023-01-09T00:06:37;7.30;;;5.03;;
23561;SDS011;11959;49.418;8.728;2023-01-09T00:09:07;7.32;;;5.25;;
23561;SDS011;11959;49.418;8.728;2023-01-09T00:11:34;6.13;;;5.25;;
23561;SDS011;11959;49.418;8.728;2023-01-09T00:13:59;6.43;;;5.45;;
23561;SDS011;11959;49.418;8.728;2023-01-09T00:16:25;7.28;;;5.35;;
23561;SDS011;11959;49.418;8.728;2023-01-09T00:18:51;6.07;;;4.57;;
23561;SDS011;11959;49.418;8.728;2023-01-09T00:21:17;7.03;;;5.03;;
23561;SDS011;11959;49.418;8.728;2023-01-09T00:23:43;7.30;;;4.95;;
23561;SDS011;11959;49.418;8.728;2023-01-09T00:26:10;7.88;;;5.32;;
23561;SDS011;11959;49.418;8.728;2023-01-09T00:28:42;7.07;;;5.20;;
23561;SDS011;11959;49.418;8.728;2023-01-09T00:31:08;6.00;;;4.68;;
23561;SDS011;11959;49.418;8.728;2023-01-09T00:33:36;5.43;;;4.35;;
23561;SDS011;11959;49.418;8.728;2023-01-09T00:36:05;7.32;;;4.30;;
23561;SDS011;11959;49.418;8.728;2023-01-09T00:38:31;5.05;;;4.22;;
23561;SDS011;11959;49.418;8.728;2023-01-09T00:40:57;5.53;;;4.03;;
23561;SDS011;11959;49.418;8.728;2023-01-09T00:43:26;6.47;;;4.47;;
23561;SDS011;11959;49.418;8.728;2023-01-09T00:45:55;5.68;;;4.10;;
23561;SDS011;11959;49.418;8.728;2023-01-09T00:48:22;7.97;;;4.43;;
23561;SDS011;11959;49.418;8.728;2023-01-09T00:50:51;5.80;;;4.30;;
23561;SDS011;11959;49.418;8.728;2023-01-09T00:53:19;5.15;;;4.35;;
23561;SDS011;11959;49.418;8.728;2023-01-09T00:55:47;5.05;;;4.32;;
23561;SDS011;11959;49.418;8.728;2023-01-09T00:58:14;6.20;;;4.32;;
23561;SDS011;11959;49.418;8.728;2023-01-09T01:00:40;5.40;;;4.63;;
23561;SDS011;11959;49.418;8.728;2023-01-09T01:03:06;7.25;;;4.47;;
23561;SDS011;11959;49.418;8.728;2023-01-09T01:05:31;5.07;;;3.90;;
23561;SDS011;11959;49.418;8.728;2023-01-09T01:08:16;5.43;;;3.80;;
23561;SDS011;11959;49.418;8.728;2023-01-09T01:10:43;5.93;;;4.00;;
23561;SDS011;11959;49.418;8.728;2023-01-09T01:13:10;2.80;;;1.88;;
23561;SDS011;11959;49.418;8.728;2023-01-09T01:15:37;2.90;;;2.00;;
23561;SDS011;11959;49.418;8.728;2023-01-09T01:18:04;4.50;;;2.25;;
23561;SDS011;11959;49.418;8.728;2023-01-09T01:20:30;3.50;;;2.50;;
23561;SDS011;11959;49.418;8.728;2023-01-09T01:22:56;2.78;;;1.92;;
23561;SDS011;11959;49.418;8.728;2023-01-09T01:25:21;2.60;;;1.67;;
23561;SDS011;11959;49.418;8.728;2023-01-09T01:27:47;2.63;;;1.90;;
23561;SDS011;11959;49.418;8.728;2023-01-09T01:30:14;1.80;;;1.08;;
23561;SDS011;11959;49.418;8.728;2023-01-09T01:32:40;1.77;;;1.10;;
23561;SDS011;11959;49.418;8.728;2023-01-09T01:35:06;1.00;;;0.80;;
23561;SDS011;11959;49.418;8.728;2023-01-09T01:37:35;1.83;;;1.00;;
23561;SDS011;11959;49.418;8.728;2023-01-09T01:40:03;2.33;;;0.80;;
23561;SDS011;11959;49.418;8.728;2023-01-09T01:42:30;1.50;;;1.05;;
23561;SDS011;11959;49.418;8.728;2023-01-09T01:50:20;2.10;;;0.80;;
23561;SDS011;11959;49.418;8.728;2023-01-09T01:52:51;1.48;;;0.85;;
23561;SDS011;11959;49.418;8.728;2023-01-09T01:55:23;0.93;;;0.70;;
23561;SDS011;11959;49.418;8.728;2023-01-09T01:57:49;2.15;;;1.05;;
23561;SDS011;11959;49.418;8.728;2023-01-09T02:00:19;1.50;;;1.05;;
23561;SDS011;11959;49.418;8.728;2023-01-09T02:02:49;1.17;;;0.85;;
23561;SDS011;11959;49.418;8.728;2023-01-09T02:05:14;1.10;;;0.90;;
23561;SDS011;11959;49.418;8.728;2023-01-09T02:07:40;1.85;;;0.80;;
23561;SDS011;11959;49.418;8.728;2023-01-09T02:10:06;0.98;;;0.80;;
23561;SDS011;11959;49.418;8.728;2023-01-09T02:12:32;1.00;;;0.98;;
23561;SDS011;11959;49.418;8.728;2023-01-09T02:15:08;0.90;;;0.80;;
23561;SDS011;11959;49.418;8.728;2023-01-09T02:18:21;1.70;;;0.88;;
23561;SDS011;11959;49.418;8.728;2023-01-09T02:20:47;1.42;;;1.30;;
23561;SDS011;11959;49.418;8.728;2023-01-09T02:38:16;2.10;;;1.80;;
23561;SDS011;11959;49.418;8.728;2023-01-09T02:43:20;2.55;;;1.83;;
23561;SDS011;11959;49.418;8.728;2023-01-09T02:45:46;1.60;;;1.50;;
23561;SDS011;11959;49.418;8.728;2023-01-09T02:48:12;2.80;;;2.17;;
23561;SDS011;11959;49.418;8.728;2023-01-09T02:50:42;3.35;;;2.20;;
23561;SDS011;11959;49.418;8.728;2023-01-09T02:56:33;1.80;;;1.13;;
23561;SDS011;11959;49.418;8.728;2023-01-09T02:59:23;3.42;;;1.10;;
23561;SDS011;11959;49.418;8.728;2023-01-09T03:04:43;1.70;;;1.40;;
23561;SDS011;11959;49.418;8.728;2023-01-09T03:07:33;2.25;;;1.45;;
23561;SDS011;11959;49.418;8.728;2023-01-09T03:12:42;2.30;;;1.60;;
23561;SDS011;11959;49.418;8.728;2023-01-09T03:15:10;2.45;;;1.70;;
23561;SDS011;11959;49.418;8.728;2023-01-09T03:17:39;1.92;;;1.20;;
23561;SDS011;11959;49.418;8.728;2023-01-09T03:20:07;3.78;;;1.42;;
23561;SDS011;11959;49.418;8.728;2023-01-09T03:22:38;1.58;;;1.15;;
23561;SDS011;11959;49.418;8.728;2023-01-09T03:25:05;2.05;;;1.45;;
23561;SDS011;11959;49.418;8.728;2023-01-09T03:27:31;2.25;;;1.42;;
23561;SDS011;11959;49.418;8.728;2023-01-09T03:29:57;2.45;;;1.33;;
23561;SDS011;11959;49.418;8.728;2023-01-09T03:32:22;1.60;;;1.30;;
23561;SDS011;11959;49.418;8.728;2023-01-09T03:34:48;1.98;;;1.50;;
23561;SDS011;11959;49.418;8.728;2023-01-09T03:37:14;2.83;;;1.40;;
23561;SDS011;11959;49.418;8.728;2023-01-09T03:39:39;1.67;;;1.30;;
23561;SDS011;11959;49.418;8.728;2023-01-09T03:42:05;2.40;;;1.40;;
23561;SDS011;11959;49.418;8.728;2023-01-09T03:44:30;1.80;;;1.38;;
23561;SDS011;11959;49.418;8.728;2023-01-09T03:46:56;3.08;;;1.10;;
23561;SDS011;11959;49.418;8.728;2023-01-09T03:49:22;1.83;;;1.00;;
23561;SDS011;11959;49.418;8.728;2023-01-09T03:51:47;1.85;;;1.00;;
23561;SDS011;11959;49.418;8.728;2023-01-09T03:54:13;1.90;;;0.93;;
23561;SDS011;11959;49.418;8.728;2023-01-09T03:56:39;3.00;;;1.17;;
23561;SDS011;11959;49.418;8.728;2023-01-09T03:59:04;1.70;;;1.10;;
23561;SDS011;11959;49.418;8.728;2023-01-09T04:01:30;1.50;;;1.27;;
23561;SDS011;11959;49.418;8.728;2023-01-09T04:03:56;2.10;;;1.50;;
23561;SDS011;11959;49.418;8.728;2023-01-09T04:06:22;2.33;;;1.38;;
23561;SDS011;11959;49.418;8.728;2023-01-09T04:08:47;1.65;;;1.10;;
23561;SDS011;11959;49.418;8.728;2023-01-09T04:11:13;1.92;;;1.10;;
23561;SDS011;11959;49.418;8.728;2023-01-09T04:13:41;1.92;;;1.23;;
23561;SDS011;11959;49.418;8.728;2023-01-09T04:16:07;1.63;;;1.00;;
23561;SDS011;11959;49.418;8.728;2023-01-09T04:18:32;1.45;;;1.05;;
23561;SDS011;11959;49.418;8.728;2023-01-09T04:20:58;2.28;;;1.13;;
23561;SDS011;11959;49.418;8.728;2023-01-09T04:23:23;2.65;;;1.30;;
23561;SDS011;11959;49.418;8.728;2023-01-09T04:25:49;1.65;;;1.23;;
23561;SDS011;11959;49.418;8.728;2023-01-09T04:28:15;1.20;;;0.70;;
23561;SDS011;11959;49.418;8.728;2023-01-09T04:30:40;1.50;;;0.73;;
23561;SDS011;11959;49.418;8.728;2023-01-09T04:33:06;1.48;;;0.75;;
23561;SDS011;11959;49.418;8.728;2023-01-09T04:35:32;0.80;;;0.60;;
23561;SDS011;11959;49.418;8.728;2023-01-09T04:37:57;1.83;;;0.63;;
23561;SDS011;11959;49.418;8.728;2023-01-09T04:40:24;1.23;;;0.80;;
23561;SDS011;11959;49.418;8.728;2023-01-09T04:42:50;2.08;;;0.95;;
23561;SDS011;11959;49.418;8.728;2023-01-09T04:45:16;9.07;;;4.60;;
23561;SDS011;11959;49.418;8.728;2023-01-09T04:47:42;4.70;;;2.08;;
23561;SDS011;11959;49.418;8.728;2023-01-09T04:50:09;3.88;;;2.05;;
23561;SDS011;11959;49.418;8.728;2023-01-09T04:52:35;3.95;;;2.15;;
23561;SDS011;11959;49.418;8.728;2023-01-09T04:55:01;1.83;;;1.05;;
23561;SDS011;11959;49.418;8.728;2023-01-09T04:57:27;2.95;;;0.80;;
23561;SDS011;11959;49.418;8.728;2023-01-09T04:59:52;1.88;;;1.10;;
23561;SDS011;11959;49.418;8.728;2023-01-09T05:02:18;1.00;;;0.90;;
23561;SDS011;11959;49.418;8.728;2023-01-09T05:04:43;0.43;;;0.40;;
23561;SDS011;11959;49.418;8.728;2023-01-09T05:07:09;2.00;;;0.57;;
23561;SDS011;11959;49.418;8.728;2023-01-09T05:09:35;1.55;;;0.95;;
23561;SDS011;11959;49.418;8.728;2023-01-09T05:12:00;1.77;;;1.40;;
23561;SDS011;11959;49.418;8.728;2023-01-09T05:14:26;1.88;;;0.75;;
23561;SDS011;11959;49.418;8.728;2023-01-09T05:16:52;1.95;;;1.33;;
23561;SDS011;11959;49.418;8.728;2023-01-09T05:19:18;1.45;;;1.17;;
23561;SDS011;11959;49.418;8.728;2023-01-09T05:21:44;0.70;;;0.70;;
23561;SDS011;11959;49.418;8.728;2023-01-09T05:24:09;1.25;;;0.60;;
23561;SDS011;11959;49.418;8.728;2023-01-09T05:26:35;1.67;;;0.60;;
23561;SDS011;11959;49.418;8.728;2023-01-09T05:29:00;1.67;;;0.82;;
23561;SDS011;11959;49.418;8.728;2023-01-09T05:31:26;1.45;;;0.70;;
23561;SDS011;11959;49.418;8.728;2023-01-09T05:33:52;1.45;;;0.70;;
23561;SDS011;11959;49.418;8.728;2023-01-09T05:36:18;2.17;;;0.70;;
23561;SDS011;11959;49.418;8.728;2023-01-09T05:38:44;0.68;;;0.40;;
23561;SDS011;11959;49.418;8.728;2023-01-09T05:41:09;2.50;;;0.60;;
23561;SDS011;11959;49.418;8.728;2023-01-09T05:43:35;0.85;;;0.50;;
23561;SDS011;11959;49.418;8.728;2023-01-09T05:46:01;2.85;;;0.70;;
23561;SDS011;11959;49.418;8.728;2023-01-09T05:48:27;2.20;;;0.55;;
23561;SDS011;11959;49.418;8.728;2023-01-09T05:50:52;0.85;;;0.40;;
23561;SDS011;11959;49.418;8.728;2023-01-09T05:53:18;1.63;;;0.50;;
23561;SDS011;11959;49.418;8.728;2023-01-09T05:55:43;2.78;;;0.68;;
23561;SDS011;11959;49.418;8.728;2023-01-09T05:58:09;3.35;;;0.60;;
23561;SDS011;11959;49.418;8.728;2023-01-09T06:00:35;2.88;;;0.52;;
23561;SDS011;11959;49.418;8.728;2023-01-09T06:03:00;1.25;;;0.50;;
23561;SDS011;11959;49.418;8.728;2023-01-09T06:05:26;3.20;;;0.47;;
23561;SDS011;11959;49.418;8.728;2023-01-09T06:07:52;0.93;;;0.38;;
23561;SDS011;11959;49.418;8.728;2023-01-09T06:10:17;3.15;;;1.10;;
23561;SDS011;11959;49.418;8.728;2023-01-09T06:12:47;2.95;;;0.60;;
23561;SDS011;11959;49.418;8.728;2023-01-09T06:15:14;1.60;;;0.50;;
23561;SDS011;11959;49.418;8.728;2023-01-09T06:17:40;0.98;;;0.40;;
23561;SDS011;11959;49.418;8.728;2023-01-09T06:20:06;2.45;;;0.63;;
23561;SDS011;11959;49.418;8.728;2023-01-09T06:22:32;0.88;;;0.60;;
23561;SDS011;11959;49.418;8.728;2023-01-09T06:24:58;1.98;;;0.70;;
23561;SDS011;11959;49.418;8.728;2023-01-09T06:27:24;2.58;;;0.50;;
23561;SDS011;11959;49.418;8.728;2023-01-09T06:29:49;4.25;;;0.80;;
23561;SDS011;11959;49.418;8.728;2023-01-09T06:32:15;2.10;;;0.65;;
23561;SDS011;11959;49.418;8.728;2023-01-09T06:34:41;3.17;;;0.80;;
23561;SDS011;11959;49.418;8.728;2023-01-09T06:37:06;2.40;;;0.70;;
23561;SDS011;11959;49.418;8.728;2023-01-09T06:39:32;2.65;;;0.70;;
23561;SDS011;11959;49.418;8.728;2023-01-09T06:41:58;2.15;;;0.75;;
23561;SDS011;11959;49.418;8.728;2023-01-09T06:44:24;4.05;;;1.10;;
23561;SDS011;11959;49.418;8.728;2023-01-09T06:46:49;4.10;;;1.25;;
23561;SDS011;11959;49.418;8.728;2023-01-09T06:49:15;2.80;;;0.77;;
23561;SDS011;11959;49.418;8.728;2023-01-09T06:51:42;1.90;;;0.77;;
23561;SDS011;11959;49.418;8.728;2023-01-09T06:54:07;3.05;;;0.90;;
23561;SDS011;11959;49.418;8.728;2023-01-09T06:56:33;2.83;;;1.08;;
23561;SDS011;11959;49.418;8.728;2023-01-09T06:58:59;4.15;;;0.82;;
23561;SDS011;11959;49.418;8.728;2023-01-09T07:01:25;4.30;;;1.13;;
23561;SDS011;11959;49.418;8.728;2023-01-09T07:03:51;2.92;;;1.05;;
23561;SDS011;11959;49.418;8.728;2023-01-09T07:06:17;4.00;;;0.98;;
23561;SDS011;11959;49.418;8.728;2023-01-09T07:08:44;3.33;;;0.80;;
23561;SDS011;11959;49.418;8.728;2023-01-09T07:11:09;4.95;;;0.93;;
23561;SDS011;11959;49.418;8.728;2023-01-09T07:13:35;2.42;;;0.90;;
23561;SDS011;11959;49.418;8.728;2023-01-09T07:16:02;4.13;;;0.70;;
23561;SDS011;11959;49.418;8.728;2023-01-09T07:18:29;4.65;;;1.00;;
23561;SDS011;11959;49.418;8.728;2023-01-09T07:20:55;5.68;;;1.27;;
23561;SDS011;11959;49.418;8.728;2023-01-09T07:23:21;6.55;;;0.98;;
23561;SDS011;11959;49.418;8.728;2023-01-09T07:25:46;4.55;;;1.00;;
23561;SDS011;11959;49.418;8.728;2023-01-09T07:28:15;5.07;;;0.82;;
23561;SDS011;11959;49.418;8.728;2023-01-09T07:30:41;2.83;;;0.90;;
23561;SDS011;11959;49.418;8.728;2023-01-09T07:33:06;4.15;;;0.95;;
23561;SDS011;11959;49.418;8.728;2023-01-09T07:35:32;4.10;;;0.95;;
23561;SDS011;11959;49.418;8.728;2023-01-09T07:37:58;3.40;;;0.75;;
23561;SDS011;11959;49.418;8.728;2023-01-09T07:40:24;4.07;;;0.90;;
23561;SDS011;11959;49.418;8.728;2023-01-09T07:42:51;4.35;;;0.75;;
23561;SDS011;11959;49.418;8.728;2023-01-09T07:45:17;4.78;;;1.05;;
23561;SDS011;11959;49.418;8.728;2023-01-09T07:47:43;4.63;;;1.00;;
23561;SDS011;11959;49.418;8.728;2023-01-09T07:50:09;4.63;;;0.80;;
23561;SDS011;11959;49.418;8.728;2023-01-09T07:52:35;3.28;;;1.00;;
23561;SDS011;11959;49.418;8.728;2023-01-09T07:55:00;4.65;;;1.00;;
23561;SDS011;11959;49.418;8.728;2023-01-09T07:57:26;6.75;;;0.95;;
23561;SDS011;11959;49.418;8.728;2023-01-09T07:59:53;3.10;;;1.10;;
23561;SDS011;11959;49.418;8.728;2023-01-09T08:02:19;6.65;;;0.82;;
23561;SDS011;11959;49.418;8.728;2023-01-09T08:04:45;7.13;;;1.50;;
23561;SDS011;11959;49.418;8.728;2023-01-09T08:07:10;5.32;;;1.02;;
23561;SDS011;11959;49.418;8.728;2023-01-09T08:09:36;3.55;;;0.82;;
23561;SDS011;11959;49.418;8.728;2023-01-09T08:12:02;5.03;;;1.60;;
23561;SDS011;11959;49.418;8.728;2023-01-09T08:14:28;6.05;;;1.17;;
23561;SDS011;11959;49.418;8.728;2023-01-09T08:16:54;5.43;;;1.05;;
23561;SDS011;11959;49.418;8.728;2023-01-09T08:19:19;8.40;;;1.00;;
23561;SDS011;11959;49.418;8.728;2023-01-09T08:21:45;5.40;;;1.30;;
23561;SDS011;11959;49.418;8.728;2023-01-09T08:24:11;5.15;;;1.25;;
23561;SDS011;11959;49.418;8.728;2023-01-09T08:26:36;5.78;;;1.35;;
23561;SDS011;11959;49.418;8.728;2023-01-09T08:29:02;4.68;;;1.17;;
23561;SDS011;11959;49.418;8.728;2023-01-09T08:31:28;4.22;;;1.08;;
23561;SDS011;11959;49.418;8.728;2023-01-09T08:33:53;3.75;;;0.80;;
23561;SDS011;11959;49.418;8.728;2023-01-09T08:36:19;6.32;;;1.08;;
23561;SDS011;11959;49.418;8.728;2023-01-09T08:38:45;6.88;;;1.20;;
23561;SDS011;11959;49.418;8.728;2023-01-09T08:41:10;4.78;;;0.80;;
23561;SDS011;11959;49.418;8.728;2023-01-09T08:43:54;6.38;;;1.20;;
23561;SDS011;11959;49.418;8.728;2023-01-09T08:46:38;6.20;;;1.33;;
23561;SDS011;11959;49.418;8.728;2023-01-09T08:49:23;5.55;;;0.93;;
23561;SDS011;11959;49.418;8.728;2023-01-09T08:51:49;3.97;;;1.05;;
23561;SDS011;11959;49.418;8.728;2023-01-09T08:54:16;6.32;;;1.15;;
23561;SDS011;11959;49.418;8.728;2023-01-09T08:56:49;7.07;;;1.10;;
23561;SDS011;11959;49.418;8.728;2023-01-09T08:59:17;4.22;;;0.98;;
23561;SDS011;11959;49.418;8.728;2023-01-09T09:01:44;5.65;;;1.02;;
23561;SDS011;11959;49.418;8.728;2023-01-09T09:04:09;4.15;;;0.85;;
23561;SDS011;11959;49.418;8.728;2023-01-09T09:06:35;3.00;;;0.90;;
23561;SDS011;11959;49.418;8.728;2023-01-09T09:09:01;5.57;;;1.25;;
23561;SDS011;11959;49.418;8.728;2023-01-09T09:11:30;3.72;;;0.90;;
23561;SDS011;11959;49.418;8.728;2023-01-09T09:13:57;5.53;;;1.23;;
23561;SDS011;11959;49.418;8.728;2023-01-09T09:16:26;3.30;;;0.85;;
23561;SDS011;11959;49.418;8.728;2023-01-09T09:18:52;5.95;;;0.90;;
23561;SDS011;11959;49.418;8.728;2023-01-09T09:21:18;5.35;;;1.15;;
23561;SDS011;11959;49.418;8.728;2023-01-09T09:23:44;3.65;;;0.82;;
23561;SDS011;11959;49.418;8.728;2023-01-09T09:26:10;3.67;;;0.80;;
23561;SDS011;11959;49.418;8.728;2023-01-09T09:28:36;3.25;;;0.80;;
23561;SDS011;11959;49.418;8.728;2023-01-09T09:31:05;4.35;;;1.25;;
23561;SDS011;11959;49.418;8.728;2023-01-09T09:33:31;4.32;;;0.90;;
23561;SDS011;11959;49.418;8.728;2023-01-09T09:35:57;3.58;;;0.68;;
23561;SDS011;11959;49.418;8.728;2023-01-09T09:38:23;3.88;;;0.68;;
23561;SDS011;11959;49.418;8.728;2023-01-09T09:55:52;3.35;;;0.73;;
23561;SDS011;11959;49.418;8.728;2023-01-09T09:58:30;3.30;;;0.90;;
23561;SDS011;11959;49.418;8.728;2023-01-09T10:01:02;3.17;;;1.00;;
23561;SDS011;11959;49.418;8.728;2023-01-09T10:03:40;2.10;;;0.65;;
23561;SDS011;11959;49.418;8.728;2023-01-09T10:06:26;5.50;;;0.70;;
23561;SDS011;11959;49.418;8.728;2023-01-09T10:09:01;2.00;;;0.60;;
23561;SDS011;11959;49.418;8.728;2023-01-09T10:14:43;3.75;;;1.00;;
23561;SDS011;11959;49.418;8.728;2023-01-09T10:23:02;2.50;;;0.85;;
23561;SDS011;11959;49.418;8.728;2023-01-09T10:38:51;4.65;;;1.33;;
23561;SDS011;11959;49.418;8.728;2023-01-09T10:41:24;4.45;;;1.17;;
23561;SDS011;11959;49.418;8.728;2023-01-09T10:44:18;3.15;;;0.90;;
23561;SDS011;11959;49.418;8.728;2023-01-09T10:46:50;3.60;;;0.70;;
23561;SDS011;11959;49.418;8.728;2023-01-09T10:49:18;3.25;;;0.80;;
23561;SDS011;11959;49.418;8.728;2023-01-09T10:51:49;4.60;;;0.90;;
23561;SDS011;11959;49.418;8.728;2023-01-09T10:54:21;1.65;;;0.68;;
23561;SDS011;11959;49.418;8.728;2023-01-09T10:56:54;4.18;;;1.02;;
23561;SDS011;11959;49.418;8.728;2023-01-09T10:59:24;3.53;;;1.10;;
23561;SDS011;11959;49.418;8.728;2023-01-09T11:01:50;2.25;;;0.85;;
23561;SDS011;11959;49.418;8.728;2023-01-09T11:04:25;3.63;;;0.68;;
23561;SDS011;11959;49.418;8.728;2023-01-09T11:07:00;2.85;;;0.80;;
23561;SDS011;11959;49.418;8.728;2023-01-09T11:12:34;3.70;;;0.73;;
23561;SDS011;11959;49.418;8.728;2023-01-09T11:17:43;2.28;;;1.10;;
23561;SDS011;11959;49.418;8.728;2023-01-09T11:20:18;3.30;;;0.90;;
23561;SDS011;11959;49.418;8.728;2023-01-09T11:22:53;3.10;;;0.65;;
23561;SDS011;11959;49.418;8.728;2023-01-09T11:30:25;2.53;;;0.70;;
23561;SDS011;11959;49.418;8.728;2023-01-09T11:32:52;3.20;;;1.08;;
23561;SDS011;11959;49.418;8.728;2023-01-09T11:35:23;5.88;;;1.45;;
23561;SDS011;11959;49.418;8.728;2023-01-09T11:37:59;2.40;;;0.73;;
23561;SDS011;11959;49.418;8.728;2023-01-09T11:40:31;3.78;;;0.70;;
23561;SDS011;11959;49.418;8.728;2023-01-09T11:45:40;2.85;;;0.60;;
23561;SDS011;11959;49.418;8.728;2023-01-09T11:48:33;1.67;;;0.60;;
23561;SDS011;11959;49.418;8.728;2023-01-09T11:51:04;3.15;;;0.80;;
23561;SDS011;11959;49.418;8.728;2023-01-09T11:54:27;2.67;;;0.77;;
23561;SDS011;11959;49.418;8.728;2023-01-09T11:56:36;4.32;;;1.08;;
23561;SDS011;11959;49.418;8.728;2023-01-09T11:59:07;3.72;;;1.02;;
23561;SDS011;11959;49.418;8.728;2023-01-09T12:04:09;2.90;;;0.90;;
23561;SDS011;11959;49.418;8.728;2023-01-09T12:07:06;3.67;;;0.90;;
23561;SDS011;11959;49.418;8.728;2023-01-09T12:09:51;3.28;;;0.98;;
23561;SDS011;11959;49.418;8.728;2023-01-09T12:12:37;3.30;;;1.23;;
23561;SDS011;11959;49.418;8.728;2023-01-09T12:15:27;3.53;;;0.95;;
23561;SDS011;11959;49.418;8.728;2023-01-09T12:21:06;4.20;;;1.48;;
23561;SDS011;11959;49.418;8.728;2023-01-09T12:26:30;4.03;;;0.90;;
23561;SDS011;11959;49.418;8.728;2023-01-09T12:32:17;2.17;;;0.80;;
23561;SDS011;11959;49.418;8.728;2023-01-09T12:40:45;2.80;;;1.45;;
23561;SDS011;11959;49.418;8.728;2023-01-09T12:45:59;4.07;;;1.00;;
23561;SDS011;11959;49.418;8.728;2023-01-09T12:51:05;4.07;;;1.15;;
23561;SDS011;11959;49.418;8.728;2023-01-09T12:56:23;2.65;;;1.40;;
23561;SDS011;11959;49.418;8.728;2023-01-09T12:58:55;3.58;;;1.88;;
23561;SDS011;11959;49.418;8.728;2023-01-09T13:01:35;4.93;;;1.30;;
23561;SDS011;11959;49.418;8.728;2023-01-09T13:04:20;4.40;;;1.33;;
23561;SDS011;11959;49.418;8.728;2023-01-09T13:06:58;5.63;;;1.48;;
23561;SDS011;11959;49.418;8.728;2023-01-09T13:09:49;2.60;;;1.20;;
23561;SDS011;11959;49.418;8.728;2023-01-09T13:12:19;5.25;;;1.40;;
23561;SDS011;11959;49.418;8.728;2023-01-09T13:17:22;5.07;;;1.57;;
23561;SDS011;11959;49.418;8.728;2023-01-09T13:19:51;3.78;;;1.25;;
23561;SDS011;11959;49.418;8.728;2023-01-09T13:22:18;4.03;;;0.90;;
23561;SDS011;11959;49.418;8.728;2023-01-09T13:27:11;2.50;;;1.02;;
23561;SDS011;11959;49.418;8.728;2023-01-09T13:29:44;2.75;;;0.90;;
23561;SDS011;11959;49.418;8.728;2023-01-09T13:32:35;3.33;;;0.93;;
23561;SDS011;11959;49.418;8.728;2023-01-09T13:35:21;4.07;;;1.25;;
23561;SDS011;11959;49.418;8.728;2023-01-09T13:37:50;2.38;;;0.90;;
23561;SDS011;11959;49.418;8.728;2023-01-09T13:42:43;1.80;;;0.65;;
23561;SDS011;11959;49.418;8.728;2023-01-09T13:48:16;3.33;;;0.95;;
23561;SDS011;11959;49.418;8.728;2023-01-09T13:50:33;3.17;;;0.70;;
23561;SDS011;11959;49.418;8.728;2023-01-09T13:58:23;2.17;;;0.63;;
23561;SDS011;11959;49.418;8.728;2023-01-09T14:00:51;2.17;;;0.55;;
23561;SDS011;11959;49.418;8.728;2023-01-09T14:03:21;1.98;;;0.63;;
23561;SDS011;11959;49.418;8.728;2023-01-09T14:08:21;1.60;;;0.50;;
23561;SDS011;11959;49.418;8.728;2023-01-09T14:10:55;2.47;;;0.70;;
23561;SDS011;11959;49.418;8.728;2023-01-09T14:15:51;0.77;;;0.40;;
23561;SDS011;11959;49.418;8.728;2023-01-09T14:18:30;2.13;;;0.80;;
23561;SDS011;11959;49.418;8.728;2023-01-09T14:23:54;2.60;;;0.73;;
23561;SDS011;11959;49.418;8.728;2023-01-09T14:26:47;1.67;;;0.90;;
23561;SDS011;11959;49.418;8.728;2023-01-09T14:29:36;1.65;;;0.60;;
23561;SDS011;11959;49.418;8.728;2023-01-09T14:37:18;2.20;;;0.80;;
23561;SDS011;11959;49.418;8.728;2023-01-09T14:39:45;1.98;;;0.68;;
23561;SDS011;11959;49.418;8.728;2023-01-09T14:42:13;1.75;;;0.65;;
23561;SDS011;11959;49.418;8.728;2023-01-09T14:45:03;2.80;;;0.82;;
23561;SDS011;11959;49.418;8.728;2023-01-09T14:50:04;3.75;;;1.00;;
23561;SDS011;11959;49.418;8.728;2023-01-09T14:52:54;3.05;;;1.02;;
23561;SDS011;11959;49.418;8.728;2023-01-09T14:55:53;5.45;;;1.20;;
23561;SDS011;11959;49.418;8.728;2023-01-09T14:58:23;3.63;;;1.20;;
23561;SDS011;11959;49.418;8.728;2023-01-09T15:06:25;2.20;;;1.00;;
23561;SDS011;11959;49.418;8.728;2023-01-09T15:11:43;2.22;;;0.90;;
23561;SDS011;11959;49.418;8.728;2023-01-09T15:14:28;1.80;;;0.70;;
23561;SDS011;11959;49.418;8.728;2023-01-09T15:17:00;2.85;;;1.00;;
23561;SDS011;11959;49.418;8.728;2023-01-09T15:19:27;2.10;;;0.90;;
23561;SDS011;11959;49.418;8.728;2023-01-09T15:22:00;2.30;;;0.80;;
23561;SDS011;11959;49.418;8.728;2023-01-09T15:24:31;4.45;;;1.10;;
23561;SDS011;11959;49.418;8.728;2023-01-09T15:27:19;2.45;;;0.90;;
23561;SDS011;11959;49.418;8.728;2023-01-09T15:29:46;2.13;;;0.68;;
23561;SDS011;11959;49.418;8.728;2023-01-09T15:32:16;5.05;;;1.20;;
23561;SDS011;11959;49.418;8.728;2023-01-09T15:34:47;2.50;;;0.88;;
23561;SDS011;11959;49.418;8.728;2023-01-09T15:37:23;2.67;;;0.85;;
23561;SDS011;11959;49.418;8.728;2023-01-09T15:42:45;3.25;;;0.95;;
23561;SDS011;11959;49.418;8.728;2023-01-09T15:47:53;5.43;;;0.98;;
23561;SDS011;11959;49.418;8.728;2023-01-09T15:50:38;2.13;;;0.73;;
23561;SDS011;11959;49.418;8.728;2023-01-09T15:53:10;4.80;;;1.02;;
23561;SDS011;11959;49.418;8.728;2023-01-09T15:58:39;3.72;;;1.23;;
23561;SDS011;11959;49.418;8.728;2023-01-09T16:01:24;3.83;;;0.93;;
23561;SDS011;11959;49.418;8.728;2023-01-09T16:03:50;2.05;;;0.95;;
23561;SDS011;11959;49.418;8.728;2023-01-09T16:06:28;4.85;;;1.77;;
23561;SDS011;11959;49.418;8.728;2023-01-09T16:08:58;2.75;;;0.93;;
23561;SDS011;11959;49.418;8.728;2023-01-09T16:11:36;3.92;;;1.50;;
23561;SDS011;11959;49.418;8.728;2023-01-09T16:14:09;3.42;;;1.00;;
23561;SDS011;11959;49.418;8.728;2023-01-09T16:16:51;2.72;;;1.20;;
23561;SDS011;11959;49.418;8.728;2023-01-09T16:19:32;2.25;;;0.90;;
23561;SDS011;11959;49.418;8.728;2023-01-09T16:24:46;3.13;;;1.10;;
23561;SDS011;11959;49.418;8.728;2023-01-09T16:29:46;2.10;;;0.80;;
23561;SDS011;11959;49.418;8.728;2023-01-09T16:32:18;2.65;;;1.02;;
23561;SDS011;11959;49.418;8.728;2023-01-09T16:34:48;1.95;;;1.05;;
23561;SDS011;11959;49.418;8.728;2023-01-09T16:37:21;5.00;;;1.10;;
23561;SDS011;11959;49.418;8.728;2023-01-09T16:42:49;2.58;;;0.85;;
23561;SDS011;11959;49.418;8.728;2023-01-09T16:45:31;3.63;;;0.95;;
23561;SDS011;11959;49.418;8.728;2023-01-09T16:48:01;4.85;;;1.40;;
23561;SDS011;11959;49.418;8.728;2023-01-09T16:50:34;2.53;;;1.00;;
23561;SDS011;11959;49.418;8.728;2023-01-09T16:52:59;4.72;;;1.10;;
23561;SDS011;11959;49.418;8.728;2023-01-09T16:55:34;2.15;;;0.80;;
23561;SDS011;11959;49.418;8.728;2023-01-09T16:58:02;5.15;;;1.00;;
23561;SDS011;11959;49.418;8.728;2023-01-09T17:00:28;3.90;;;1.27;;
23561;SDS011;11959;49.418;8.728;2023-01-09T17:02:53;8.23;;;1.75;;
23561;SDS011;11959;49.418;8.728;2023-01-09T17:05:21;2.83;;;1.27;;
23561;SDS011;11959;49.418;8.728;2023-01-09T17:07:46;3.97;;;1.13;;
23561;SDS011;11959;49.418;8.728;2023-01-09T17:10:14;3.03;;;1.27;;
23561;SDS011;11959;49.418;8.728;2023-01-09T17:12:44;3.60;;;1.33;;
23561;SDS011;11959;49.418;8.728;2023-01-09T17:15:09;5.40;;;1.42;;
23561;SDS011;11959;49.418;8.728;2023-01-09T17:17:35;3.65;;;1.50;;
23561;SDS011;11959;49.418;8.728;2023-01-09T17:20:01;4.15;;;1.25;;
23561;SDS011;11959;49.418;8.728;2023-01-09T17:22:28;4.07;;;1.08;;
23561;SDS011;11959;49.418;8.728;2023-01-09T17:24:54;3.28;;;1.45;;
23561;SDS011;11959;49.418;8.728;2023-01-09T17:27:38;5.90;;;1.38;;
23561;SDS011;11959;49.418;8.728;2023-01-09T17:30:22;3.33;;;1.38;;
23561;SDS011;11959;49.418;8.728;2023-01-09T17:32:48;3.80;;;1.70;;
23561;SDS011;11959;49.418;8.728;2023-01-09T17:35:14;3.40;;;1.92;;
23561;SDS011;11959;49.418;8.728;2023-01-09T17:37:40;3.92;;;1.60;;
23561;SDS011;11959;49.418;8.728;2023-01-09T17:40:20;2.85;;;1.05;;
23561;SDS011;11959;49.418;8.728;2023-01-09T17:42:46;6.50;;;1.30;;
23561;SDS011;11959;49.418;8.728;2023-01-09T17:45:12;2.75;;;0.85;;
23561;SDS011;11959;49.418;8.728;2023-01-09T17:47:38;2.72;;;1.23;;